sensor_id;sensor_type;location;lat;lon;timestamp;temperature;humidity
439;DHT22;206;48.782;9.252;2022-08-05T00:00:09;28.90;23.90
439;DHT22;206;48.782;9.252;2022-08-05T00:02:36;28.90;24.00
439;DHT22;206;48.782;9.252;2022-08-05T00:05:03;28.80;24.60
439;DHT22;206;48.782;9.252;2022-08-05T00:07:28;28.80;24.70
439;DHT22;206;48.782;9.252;2022-08-05T00:09:54;28.80;24.20
439;DHT22;206;48.782;9.252;2022-08-05T00:12:20;28.70;24.20
439;DHT22;206;48.782;9.252;2022-08-05T00:14:45;28.70;24.20
439;DHT22;206;48.782;9.252;2022-08-05T00:17:11;28.70;24.30
439;DHT22;206;48.782;9.252;2022-08-05T00:19:36;28.70;24.50
439;DHT22;206;48.782;9.252;2022-08-05T00:22:02;28.70;24.40
439;DHT22;206;48.782;9.252;2022-08-05T00:24:28;28.60;24.30
439;DHT22;206;48.782;9.252;2022-08-05T00:26:54;28.60;24.40
439;DHT22;206;48.782;9.252;2022-08-05T00:29:20;28.60;24.40
439;DHT22;206;48.782;9.252;2022-08-05T00:31:46;28.50;24.70
439;DHT22;206;48.782;9.252;2022-08-05T00:34:12;28.50;25.10
439;DHT22;206;48.782;9.252;2022-08-05T00:36:37;28.40;25.20
439;DHT22;206;48.782;9.252;2022-08-05T00:39:03;28.30;25.40
439;DHT22;206;48.782;9.252;2022-08-05T00:41:30;28.30;25.50
439;DHT22;206;48.782;9.252;2022-08-05T00:43:56;28.30;26.20
439;DHT22;206;48.782;9.252;2022-08-05T00:46:22;28.20;25.70
439;DHT22;206;48.782;9.252;2022-08-05T00:48:48;28.20;25.70
439;DHT22;206;48.782;9.252;2022-08-05T00:51:14;28.30;25.80
439;DHT22;206;48.782;9.252;2022-08-05T00:53:40;28.30;25.80
439;DHT22;206;48.782;9.252;2022-08-05T00:56:06;28.30;25.80
439;DHT22;206;48.782;9.252;2022-08-05T00:58:32;28.30;25.80
439;DHT22;206;48.782;9.252;2022-08-05T01:00:57;28.30;25.90
439;DHT22;206;48.782;9.252;2022-08-05T01:03:23;28.30;26.00
439;DHT22;206;48.782;9.252;2022-08-05T01:05:50;28.30;26.10
439;DHT22;206;48.782;9.252;2022-08-05T01:08:17;28.20;26.20
439;DHT22;206;48.782;9.252;2022-08-05T01:10:47;28.10;26.50
439;DHT22;206;48.782;9.252;2022-08-05T01:16:08;28.00;26.30
439;DHT22;206;48.782;9.252;2022-08-05T01:18:42;28.00;25.80
439;DHT22;206;48.782;9.252;2022-08-05T01:21:35;28.00;25.00
439;DHT22;206;48.782;9.252;2022-08-05T01:24:30;28.00;25.00
439;DHT22;206;48.782;9.252;2022-08-05T01:27:07;28.00;24.80
439;DHT22;206;48.782;9.252;2022-08-05T01:29:44;28.00;22.40
439;DHT22;206;48.782;9.252;2022-08-05T01:32:15;28.10;20.50
439;DHT22;206;48.782;9.252;2022-08-05T01:34:54;28.10;20.40
439;DHT22;206;48.782;9.252;2022-08-05T01:40:02;28.10;18.70
439;DHT22;206;48.782;9.252;2022-08-05T01:42:30;28.20;20.10
439;DHT22;206;48.782;9.252;2022-08-05T01:44:58;28.20;18.50
439;DHT22;206;48.782;9.252;2022-08-05T01:47:25;28.20;19.20
439;DHT22;206;48.782;9.252;2022-08-05T01:49:54;28.20;18.50
439;DHT22;206;48.782;9.252;2022-08-05T01:52:21;28.20;18.70
439;DHT22;206;48.782;9.252;2022-08-05T01:54:51;28.10;18.90
439;DHT22;206;48.782;9.252;2022-08-05T01:57:24;28.10;18.60
439;DHT22;206;48.782;9.252;2022-08-05T01:59:55;28.00;18.90
439;DHT22;206;48.782;9.252;2022-08-05T02:02:22;27.90;19.00
439;DHT22;206;48.782;9.252;2022-08-05T02:04:50;27.90;19.20
439;DHT22;206;48.782;9.252;2022-08-05T02:07:17;27.90;19.60
439;DHT22;206;48.782;9.252;2022-08-05T02:09:43;27.90;19.90
439;DHT22;206;48.782;9.252;2022-08-05T02:12:43;27.80;20.30
439;DHT22;206;48.782;9.252;2022-08-05T02:15:24;27.80;20.30
439;DHT22;206;48.782;9.252;2022-08-05T02:18:14;27.80;20.30
439;DHT22;206;48.782;9.252;2022-08-05T02:20:47;27.80;20.30
439;DHT22;206;48.782;9.252;2022-08-05T02:23:15;27.70;20.20
439;DHT22;206;48.782;9.252;2022-08-05T02:25:44;27.70;20.20
439;DHT22;206;48.782;9.252;2022-08-05T02:28:11;27.60;20.20
439;DHT22;206;48.782;9.252;2022-08-05T02:30:44;27.60;20.50
439;DHT22;206;48.782;9.252;2022-08-05T02:33:15;27.50;20.90
439;DHT22;206;48.782;9.252;2022-08-05T02:35:42;27.50;21.10
439;DHT22;206;48.782;9.252;2022-08-05T02:38:09;27.50;21.20
439;DHT22;206;48.782;9.252;2022-08-05T02:40:41;27.40;21.40
439;DHT22;206;48.782;9.252;2022-08-05T02:43:08;27.30;21.60
439;DHT22;206;48.782;9.252;2022-08-05T02:45:35;27.30;21.90
439;DHT22;206;48.782;9.252;2022-08-05T02:48:02;27.20;21.90
439;DHT22;206;48.782;9.252;2022-08-05T02:50:29;27.30;22.00
439;DHT22;206;48.782;9.252;2022-08-05T02:52:56;27.30;21.90
439;DHT22;206;48.782;9.252;2022-08-05T02:55:22;27.30;21.90
439;DHT22;206;48.782;9.252;2022-08-05T02:57:49;27.40;22.00
439;DHT22;206;48.782;9.252;2022-08-05T03:00:15;27.30;21.90
439;DHT22;206;48.782;9.252;2022-08-05T03:02:43;27.40;22.00
439;DHT22;206;48.782;9.252;2022-08-05T03:05:11;27.40;22.00
439;DHT22;206;48.782;9.252;2022-08-05T03:07:38;27.40;21.90
439;DHT22;206;48.782;9.252;2022-08-05T03:10:04;27.40;21.80
439;DHT22;206;48.782;9.252;2022-08-05T03:12:35;27.40;21.70
439;DHT22;206;48.782;9.252;2022-08-05T03:15:05;27.50;21.70
439;DHT22;206;48.782;9.252;2022-08-05T03:17:31;27.50;21.70
439;DHT22;206;48.782;9.252;2022-08-05T03:19:56;27.50;21.80
439;DHT22;206;48.782;9.252;2022-08-05T03:22:23;27.50;21.70
439;DHT22;206;48.782;9.252;2022-08-05T03:24:49;27.50;21.80
439;DHT22;206;48.782;9.252;2022-08-05T03:27:15;27.50;21.90
439;DHT22;206;48.782;9.252;2022-08-05T03:29:42;27.50;22.00
439;DHT22;206;48.782;9.252;2022-08-05T03:32:08;27.50;22.30
439;DHT22;206;48.782;9.252;2022-08-05T03:34:34;27.40;22.20
439;DHT22;206;48.782;9.252;2022-08-05T03:37:03;27.40;22.40
439;DHT22;206;48.782;9.252;2022-08-05T03:39:28;27.40;22.40
439;DHT22;206;48.782;9.252;2022-08-05T03:41:55;27.40;22.40
439;DHT22;206;48.782;9.252;2022-08-05T03:44:21;27.50;22.60
439;DHT22;206;48.782;9.252;2022-08-05T03:46:46;27.50;22.60
439;DHT22;206;48.782;9.252;2022-08-05T03:49:12;27.50;22.50
439;DHT22;206;48.782;9.252;2022-08-05T03:52:00;27.50;22.50
439;DHT22;206;48.782;9.252;2022-08-05T03:54:39;27.50;22.50
439;DHT22;206;48.782;9.252;2022-08-05T03:57:09;27.50;22.50
439;DHT22;206;48.782;9.252;2022-08-05T04:00:00;27.50;22.60
439;DHT22;206;48.782;9.252;2022-08-05T04:02:30;27.50;22.70
439;DHT22;206;48.782;9.252;2022-08-05T04:04:58;27.50;22.80
439;DHT22;206;48.782;9.252;2022-08-05T04:07:27;27.50;22.90
439;DHT22;206;48.782;9.252;2022-08-05T04:10:04;27.50;22.90
439;DHT22;206;48.782;9.252;2022-08-05T04:12:31;27.40;23.00
439;DHT22;206;48.782;9.252;2022-08-05T04:14:58;27.30;23.10
439;DHT22;206;48.782;9.252;2022-08-05T04:17:24;27.30;23.30
439;DHT22;206;48.782;9.252;2022-08-05T04:19:50;27.20;23.40
439;DHT22;206;48.782;9.252;2022-08-05T04:22:16;27.20;23.60
439;DHT22;206;48.782;9.252;2022-08-05T04:24:43;27.10;23.90
439;DHT22;206;48.782;9.252;2022-08-05T04:27:10;27.10;23.90
439;DHT22;206;48.782;9.252;2022-08-05T04:29:36;27.10;24.20
439;DHT22;206;48.782;9.252;2022-08-05T04:32:02;27.00;24.40
439;DHT22;206;48.782;9.252;2022-08-05T04:34:27;26.90;24.60
439;DHT22;206;48.782;9.252;2022-08-05T04:36:53;26.90;25.00
439;DHT22;206;48.782;9.252;2022-08-05T04:39:19;26.90;25.10
439;DHT22;206;48.782;9.252;2022-08-05T04:41:46;26.80;25.30
439;DHT22;206;48.782;9.252;2022-08-05T04:44:12;26.80;25.40
439;DHT22;206;48.782;9.252;2022-08-05T04:46:38;26.80;25.60
439;DHT22;206;48.782;9.252;2022-08-05T04:49:05;26.80;25.80
439;DHT22;206;48.782;9.252;2022-08-05T04:51:31;26.80;25.90
439;DHT22;206;48.782;9.252;2022-08-05T04:53:58;26.70;26.00
439;DHT22;206;48.782;9.252;2022-08-05T04:56:24;26.60;26.00
439;DHT22;206;48.782;9.252;2022-08-05T04:58:49;26.60;26.20
439;DHT22;206;48.782;9.252;2022-08-05T05:01:15;26.50;26.60
439;DHT22;206;48.782;9.252;2022-08-05T05:03:41;26.50;26.80
439;DHT22;206;48.782;9.252;2022-08-05T05:06:10;26.50;26.70
439;DHT22;206;48.782;9.252;2022-08-05T05:08:36;26.60;26.80
439;DHT22;206;48.782;9.252;2022-08-05T05:11:02;26.60;26.80
439;DHT22;206;48.782;9.252;2022-08-05T05:13:28;26.60;26.60
439;DHT22;206;48.782;9.252;2022-08-05T05:15:54;26.60;26.70
439;DHT22;206;48.782;9.252;2022-08-05T05:18:19;26.60;26.80
439;DHT22;206;48.782;9.252;2022-08-05T05:20:46;26.60;26.80
439;DHT22;206;48.782;9.252;2022-08-05T05:23:12;26.60;26.80
439;DHT22;206;48.782;9.252;2022-08-05T05:25:42;26.50;26.90
439;DHT22;206;48.782;9.252;2022-08-05T05:28:10;26.60;26.80
439;DHT22;206;48.782;9.252;2022-08-05T05:30:36;26.60;26.90
439;DHT22;206;48.782;9.252;2022-08-05T05:33:04;26.60;26.80
439;DHT22;206;48.782;9.252;2022-08-05T05:35:31;26.70;26.70
439;DHT22;206;48.782;9.252;2022-08-05T05:37:58;26.70;26.50
439;DHT22;206;48.782;9.252;2022-08-05T05:40:28;26.70;26.50
439;DHT22;206;48.782;9.252;2022-08-05T05:42:54;26.80;26.50
439;DHT22;206;48.782;9.252;2022-08-05T05:45:20;26.80;26.40
439;DHT22;206;48.782;9.252;2022-08-05T05:47:46;26.90;26.40
439;DHT22;206;48.782;9.252;2022-08-05T05:50:13;26.90;26.40
439;DHT22;206;48.782;9.252;2022-08-05T05:52:39;26.90;26.30
439;DHT22;206;48.782;9.252;2022-08-05T05:55:07;27.00;26.40
439;DHT22;206;48.782;9.252;2022-08-05T05:57:34;27.00;26.40
439;DHT22;206;48.782;9.252;2022-08-05T06:00:00;27.00;26.40
439;DHT22;206;48.782;9.252;2022-08-05T06:02:26;27.00;26.30
439;DHT22;206;48.782;9.252;2022-08-05T06:04:52;27.00;26.20
439;DHT22;206;48.782;9.252;2022-08-05T06:07:17;27.10;26.30
439;DHT22;206;48.782;9.252;2022-08-05T06:09:43;27.10;26.20
439;DHT22;206;48.782;9.252;2022-08-05T06:12:08;27.10;26.00
439;DHT22;206;48.782;9.252;2022-08-05T06:14:34;27.20;25.90
439;DHT22;206;48.782;9.252;2022-08-05T06:17:00;27.20;25.70
439;DHT22;206;48.782;9.252;2022-08-05T06:19:26;27.40;25.50
439;DHT22;206;48.782;9.252;2022-08-05T06:21:51;27.40;25.30
439;DHT22;206;48.782;9.252;2022-08-05T06:24:17;27.50;25.20
439;DHT22;206;48.782;9.252;2022-08-05T06:26:44;27.40;25.00
439;DHT22;206;48.782;9.252;2022-08-05T06:29:10;27.40;25.00
439;DHT22;206;48.782;9.252;2022-08-05T06:31:36;27.40;25.20
439;DHT22;206;48.782;9.252;2022-08-05T06:34:03;27.40;25.10
439;DHT22;206;48.782;9.252;2022-08-05T06:36:28;27.40;25.00
439;DHT22;206;48.782;9.252;2022-08-05T06:38:54;27.40;24.30
439;DHT22;206;48.782;9.252;2022-08-05T06:41:20;27.50;24.30
439;DHT22;206;48.782;9.252;2022-08-05T06:43:46;27.60;24.50
439;DHT22;206;48.782;9.252;2022-08-05T06:46:13;27.80;24.30
439;DHT22;206;48.782;9.252;2022-08-05T06:48:38;27.90;24.00
439;DHT22;206;48.782;9.252;2022-08-05T06:51:04;28.00;23.60
439;DHT22;206;48.782;9.252;2022-08-05T06:53:30;28.30;23.30
439;DHT22;206;48.782;9.252;2022-08-05T06:55:57;28.50;22.90
439;DHT22;206;48.782;9.252;2022-08-05T06:58:23;28.80;22.40
439;DHT22;206;48.782;9.252;2022-08-05T07:00:49;29.00;21.00
439;DHT22;206;48.782;9.252;2022-08-05T07:03:15;29.30;21.00
439;DHT22;206;48.782;9.252;2022-08-05T07:05:41;29.50;21.10
439;DHT22;206;48.782;9.252;2022-08-05T07:08:07;29.80;20.40
439;DHT22;206;48.782;9.252;2022-08-05T07:10:32;29.90;20.60
439;DHT22;206;48.782;9.252;2022-08-05T07:12:58;30.00;19.10
439;DHT22;206;48.782;9.252;2022-08-05T07:15:42;30.10;19.20
439;DHT22;206;48.782;9.252;2022-08-05T07:18:26;30.20;19.60
439;DHT22;206;48.782;9.252;2022-08-05T07:20:52;30.40;19.30
439;DHT22;206;48.782;9.252;2022-08-05T07:23:17;30.60;19.00
439;DHT22;206;48.782;9.252;2022-08-05T07:25:43;30.80;18.20
439;DHT22;206;48.782;9.252;2022-08-05T07:28:09;30.90;16.90
439;DHT22;206;48.782;9.252;2022-08-05T07:30:36;31.00;17.10
439;DHT22;206;48.782;9.252;2022-08-05T07:33:03;31.10;16.90
439;DHT22;206;48.782;9.252;2022-08-05T07:35:30;31.30;16.30
439;DHT22;206;48.782;9.252;2022-08-05T07:37:55;31.50;15.90
439;DHT22;206;48.782;9.252;2022-08-05T07:40:21;31.70;15.60
439;DHT22;206;48.782;9.252;2022-08-05T07:42:47;31.90;15.40
439;DHT22;206;48.782;9.252;2022-08-05T07:45:13;32.10;15.10
439;DHT22;206;48.782;9.252;2022-08-05T07:47:39;32.20;14.80
439;DHT22;206;48.782;9.252;2022-08-05T07:50:04;32.30;14.30
439;DHT22;206;48.782;9.252;2022-08-05T07:52:30;32.40;14.00
439;DHT22;206;48.782;9.252;2022-08-05T07:54:56;32.40;14.00
439;DHT22;206;48.782;9.252;2022-08-05T07:57:22;32.30;13.90
439;DHT22;206;48.782;9.252;2022-08-05T07:59:47;32.30;13.70
439;DHT22;206;48.782;9.252;2022-08-05T08:02:13;32.30;14.00
439;DHT22;206;48.782;9.252;2022-08-05T08:04:39;32.40;13.40
439;DHT22;206;48.782;9.252;2022-08-05T08:07:05;32.50;13.30
439;DHT22;206;48.782;9.252;2022-08-05T08:09:30;32.50;13.10
439;DHT22;206;48.782;9.252;2022-08-05T08:11:56;32.50;12.40
439;DHT22;206;48.782;9.252;2022-08-05T08:14:22;32.50;12.60
439;DHT22;206;48.782;9.252;2022-08-05T08:16:47;32.60;12.60
439;DHT22;206;48.782;9.252;2022-08-05T08:19:13;32.60;12.10
439;DHT22;206;48.782;9.252;2022-08-05T08:21:38;32.60;11.80
439;DHT22;206;48.782;9.252;2022-08-05T08:24:04;32.60;11.90
439;DHT22;206;48.782;9.252;2022-08-05T08:26:30;32.60;11.30
439;DHT22;206;48.782;9.252;2022-08-05T08:28:58;32.50;11.50
439;DHT22;206;48.782;9.252;2022-08-05T08:31:24;32.40;10.70
439;DHT22;206;48.782;9.252;2022-08-05T08:33:49;32.20;10.30
439;DHT22;206;48.782;9.252;2022-08-05T08:36:15;32.00;10.30
439;DHT22;206;48.782;9.252;2022-08-05T08:38:40;32.00;10.40
439;DHT22;206;48.782;9.252;2022-08-05T08:41:09;32.10;10.40
439;DHT22;206;48.782;9.252;2022-08-05T08:43:36;32.20;10.40
439;DHT22;206;48.782;9.252;2022-08-05T08:46:03;32.40;10.00
439;DHT22;206;48.782;9.252;2022-08-05T08:48:30;32.50;9.90
439;DHT22;206;48.782;9.252;2022-08-05T08:50:57;32.70;9.70
439;DHT22;206;48.782;9.252;2022-08-05T08:53:24;32.80;9.40
439;DHT22;206;48.782;9.252;2022-08-05T08:55:51;32.90;9.20
439;DHT22;206;48.782;9.252;2022-08-05T08:58:17;32.80;9.50
439;DHT22;206;48.782;9.252;2022-08-05T09:00:44;32.80;8.90
439;DHT22;206;48.782;9.252;2022-08-05T09:03:10;32.80;9.20
439;DHT22;206;48.782;9.252;2022-08-05T09:05:36;32.90;9.30
439;DHT22;206;48.782;9.252;2022-08-05T09:08:02;32.90;9.20
439;DHT22;206;48.782;9.252;2022-08-05T09:10:27;33.00;9.30
439;DHT22;206;48.782;9.252;2022-08-05T09:12:54;33.00;9.00
439;DHT22;206;48.782;9.252;2022-08-05T09:15:20;33.00;9.30
439;DHT22;206;48.782;9.252;2022-08-05T09:17:45;33.00;9.30
439;DHT22;206;48.782;9.252;2022-08-05T09:20:12;33.00;9.30
439;DHT22;206;48.782;9.252;2022-08-05T09:23:13;32.90;9.00
439;DHT22;206;48.782;9.252;2022-08-05T09:25:41;32.80;9.20
439;DHT22;206;48.782;9.252;2022-08-05T09:28:21;32.80;9.10
439;DHT22;206;48.782;9.252;2022-08-05T09:31:07;32.60;9.40
439;DHT22;206;48.782;9.252;2022-08-05T09:33:47;32.60;9.30
439;DHT22;206;48.782;9.252;2022-08-05T09:36:14;32.50;9.20
439;DHT22;206;48.782;9.252;2022-08-05T09:38:55;32.50;9.30
439;DHT22;206;48.782;9.252;2022-08-05T09:41:21;32.50;9.50
439;DHT22;206;48.782;9.252;2022-08-05T09:43:47;32.50;9.20
439;DHT22;206;48.782;9.252;2022-08-05T09:46:33;32.60;9.00
439;DHT22;206;48.782;9.252;2022-08-05T09:49:02;32.60;9.10
439;DHT22;206;48.782;9.252;2022-08-05T09:51:36;32.60;8.90
439;DHT22;206;48.782;9.252;2022-08-05T09:54:04;32.60;8.70
439;DHT22;206;48.782;9.252;2022-08-05T09:56:34;32.60;9.20
439;DHT22;206;48.782;9.252;2022-08-05T09:59:07;32.60;8.90
439;DHT22;206;48.782;9.252;2022-08-05T10:01:35;32.70;8.90
439;DHT22;206;48.782;9.252;2022-08-05T10:04:03;32.70;8.90
439;DHT22;206;48.782;9.252;2022-08-05T10:06:30;32.80;8.70
439;DHT22;206;48.782;9.252;2022-08-05T10:09:13;32.80;8.50
439;DHT22;206;48.782;9.252;2022-08-05T10:11:40;32.90;8.60
439;DHT22;206;48.782;9.252;2022-08-05T10:14:27;32.90;8.40
439;DHT22;206;48.782;9.252;2022-08-05T10:16:54;33.00;8.30
439;DHT22;206;48.782;9.252;2022-08-05T10:19:21;33.00;8.30
439;DHT22;206;48.782;9.252;2022-08-05T10:21:47;33.00;8.30
439;DHT22;206;48.782;9.252;2022-08-05T10:24:17;33.00;8.30
439;DHT22;206;48.782;9.252;2022-08-05T10:26:45;32.90;8.10
439;DHT22;206;48.782;9.252;2022-08-05T10:29:11;32.80;8.50
439;DHT22;206;48.782;9.252;2022-08-05T10:31:36;32.80;8.40
439;DHT22;206;48.782;9.252;2022-08-05T10:34:09;32.60;8.70
439;DHT22;206;48.782;9.252;2022-08-05T10:36:40;32.50;8.80
439;DHT22;206;48.782;9.252;2022-08-05T10:39:17;32.40;8.70
439;DHT22;206;48.782;9.252;2022-08-05T10:44:21;32.20;9.10
439;DHT22;206;48.782;9.252;2022-08-05T10:49:15;32.30;8.60
439;DHT22;206;48.782;9.252;2022-08-05T10:51:46;32.40;8.60
439;DHT22;206;48.782;9.252;2022-08-05T10:54:13;32.50;8.50
439;DHT22;206;48.782;9.252;2022-08-05T10:56:50;32.50;8.60
439;DHT22;206;48.782;9.252;2022-08-05T10:59:27;32.60;8.40
439;DHT22;206;48.782;9.252;2022-08-05T11:04:42;32.80;7.90
439;DHT22;206;48.782;9.252;2022-08-05T11:07:08;32.90;7.80
439;DHT22;206;48.782;9.252;2022-08-05T11:12:01;33.00;7.50
439;DHT22;206;48.782;9.252;2022-08-05T11:14:33;33.00;7.50
439;DHT22;206;48.782;9.252;2022-08-05T11:19:51;33.10;6.90
439;DHT22;206;48.782;9.252;2022-08-05T11:27:51;33.20;6.50
439;DHT22;206;48.782;9.252;2022-08-05T11:30:17;33.30;6.70
439;DHT22;206;48.782;9.252;2022-08-05T11:32:42;33.30;6.60
439;DHT22;206;48.782;9.252;2022-08-05T11:38:12;33.50;6.80
439;DHT22;206;48.782;9.252;2022-08-05T11:41:02;33.60;6.90
439;DHT22;206;48.782;9.252;2022-08-05T11:43:29;33.60;6.50
439;DHT22;206;48.782;9.252;2022-08-05T11:45:55;33.60;6.60
439;DHT22;206;48.782;9.252;2022-08-05T11:48:21;33.70;7.10
439;DHT22;206;48.782;9.252;2022-08-05T11:50:48;33.80;7.10
439;DHT22;206;48.782;9.252;2022-08-05T11:53:15;33.90;7.00
439;DHT22;206;48.782;9.252;2022-08-05T11:55:57;33.90;6.70
439;DHT22;206;48.782;9.252;2022-08-05T11:58:37;34.00;6.40
439;DHT22;206;48.782;9.252;2022-08-05T12:01:17;34.10;7.00
439;DHT22;206;48.782;9.252;2022-08-05T12:03:50;34.10;6.50
439;DHT22;206;48.782;9.252;2022-08-05T12:06:18;34.20;6.40
439;DHT22;206;48.782;9.252;2022-08-05T12:08:52;34.30;6.00
439;DHT22;206;48.782;9.252;2022-08-05T12:11:22;34.30;6.00
439;DHT22;206;48.782;9.252;2022-08-05T12:14:02;34.40;6.10
439;DHT22;206;48.782;9.252;2022-08-05T12:16:31;34.40;6.00
439;DHT22;206;48.782;9.252;2022-08-05T12:18:57;34.50;6.10
439;DHT22;206;48.782;9.252;2022-08-05T12:24:03;34.50;6.10
439;DHT22;206;48.782;9.252;2022-08-05T12:26:37;34.60;6.10
439;DHT22;206;48.782;9.252;2022-08-05T12:29:14;34.60;5.40
439;DHT22;206;48.782;9.252;2022-08-05T12:31:45;34.60;6.20
439;DHT22;206;48.782;9.252;2022-08-05T12:34:13;34.60;5.60
439;DHT22;206;48.782;9.252;2022-08-05T12:36:39;34.70;5.50
439;DHT22;206;48.782;9.252;2022-08-05T12:39:05;34.80;5.70
439;DHT22;206;48.782;9.252;2022-08-05T12:41:34;34.80;5.60
439;DHT22;206;48.782;9.252;2022-08-05T12:44:03;34.80;5.70
439;DHT22;206;48.782;9.252;2022-08-05T12:46:31;34.90;5.50
439;DHT22;206;48.782;9.252;2022-08-05T12:49:11;34.90;5.20
439;DHT22;206;48.782;9.252;2022-08-05T12:51:57;35.00;5.30
439;DHT22;206;48.782;9.252;2022-08-05T12:54:30;35.00;5.40
439;DHT22;206;48.782;9.252;2022-08-05T12:56:58;35.00;5.30
439;DHT22;206;48.782;9.252;2022-08-05T13:02:10;35.00;5.20
439;DHT22;206;48.782;9.252;2022-08-05T13:04:40;35.00;5.20
439;DHT22;206;48.782;9.252;2022-08-05T13:07:12;35.00;5.00
439;DHT22;206;48.782;9.252;2022-08-05T13:09:40;35.10;5.00
439;DHT22;206;48.782;9.252;2022-08-05T13:12:08;35.10;4.70
439;DHT22;206;48.782;9.252;2022-08-05T13:17:20;34.90;5.10
439;DHT22;206;48.782;9.252;2022-08-05T13:20:08;34.70;5.30
439;DHT22;206;48.782;9.252;2022-08-05T13:22:36;34.80;5.80
439;DHT22;206;48.782;9.252;2022-08-05T13:25:06;34.80;5.30
439;DHT22;206;48.782;9.252;2022-08-05T13:27:38;34.80;5.20
439;DHT22;206;48.782;9.252;2022-08-05T13:30:09;34.90;5.20
439;DHT22;206;48.782;9.252;2022-08-05T13:32:35;35.00;5.10
439;DHT22;206;48.782;9.252;2022-08-05T13:35:00;35.00;5.10
439;DHT22;206;48.782;9.252;2022-08-05T13:37:26;35.00;5.20
439;DHT22;206;48.782;9.252;2022-08-05T13:39:52;35.00;5.00
439;DHT22;206;48.782;9.252;2022-08-05T13:42:19;35.10;4.80
439;DHT22;206;48.782;9.252;2022-08-05T13:44:46;35.10;4.70
439;DHT22;206;48.782;9.252;2022-08-05T13:47:15;35.00;4.90
439;DHT22;206;48.782;9.252;2022-08-05T13:49:41;34.90;5.00
439;DHT22;206;48.782;9.252;2022-08-05T13:52:17;34.80;5.20
439;DHT22;206;48.782;9.252;2022-08-05T13:54:43;34.70;5.20
439;DHT22;206;48.782;9.252;2022-08-05T13:57:10;34.60;5.30
439;DHT22;206;48.782;9.252;2022-08-05T13:59:37;34.70;5.40
439;DHT22;206;48.782;9.252;2022-08-05T14:02:04;34.80;5.20
439;DHT22;206;48.782;9.252;2022-08-05T14:04:32;34.80;5.40
439;DHT22;206;48.782;9.252;2022-08-05T14:07:18;34.90;5.20
439;DHT22;206;48.782;9.252;2022-08-05T14:09:44;34.80;5.20
439;DHT22;206;48.782;9.252;2022-08-05T14:12:10;34.80;5.00
439;DHT22;206;48.782;9.252;2022-08-05T14:14:35;34.80;5.10
439;DHT22;206;48.782;9.252;2022-08-05T14:17:01;34.80;5.10
439;DHT22;206;48.782;9.252;2022-08-05T14:19:27;34.80;4.90
439;DHT22;206;48.782;9.252;2022-08-05T14:21:52;34.80;5.10
439;DHT22;206;48.782;9.252;2022-08-05T14:24:18;34.80;5.00
439;DHT22;206;48.782;9.252;2022-08-05T14:26:43;34.70;5.30
439;DHT22;206;48.782;9.252;2022-08-05T14:29:09;34.50;6.10
439;DHT22;206;48.782;9.252;2022-08-05T14:31:35;34.30;6.00
439;DHT22;206;48.782;9.252;2022-08-05T14:34:00;34.20;5.90
439;DHT22;206;48.782;9.252;2022-08-05T14:36:26;34.10;5.90
439;DHT22;206;48.782;9.252;2022-08-05T14:38:51;34.00;5.80
439;DHT22;206;48.782;9.252;2022-08-05T14:41:17;33.80;6.40
439;DHT22;206;48.782;9.252;2022-08-05T14:43:43;33.70;6.70
439;DHT22;206;48.782;9.252;2022-08-05T14:46:09;33.50;7.00
439;DHT22;206;48.782;9.252;2022-08-05T14:48:35;33.30;7.30
439;DHT22;206;48.782;9.252;2022-08-05T14:51:01;33.20;7.40
439;DHT22;206;48.782;9.252;2022-08-05T14:53:26;33.10;7.60
439;DHT22;206;48.782;9.252;2022-08-05T14:55:52;33.10;7.70
439;DHT22;206;48.782;9.252;2022-08-05T14:58:17;33.10;7.80
439;DHT22;206;48.782;9.252;2022-08-05T15:00:43;32.90;8.10
439;DHT22;206;48.782;9.252;2022-08-05T15:03:08;32.90;8.60
439;DHT22;206;48.782;9.252;2022-08-05T15:05:34;32.80;9.20
439;DHT22;206;48.782;9.252;2022-08-05T15:08:01;32.60;9.60
439;DHT22;206;48.782;9.252;2022-08-05T15:10:27;32.50;10.20
439;DHT22;206;48.782;9.252;2022-08-05T15:12:53;32.30;10.40
439;DHT22;206;48.782;9.252;2022-08-05T15:15:19;32.20;10.60
439;DHT22;206;48.782;9.252;2022-08-05T15:17:45;32.10;10.90
439;DHT22;206;48.782;9.252;2022-08-05T15:20:11;32.10;11.40
439;DHT22;206;48.782;9.252;2022-08-05T15:22:38;32.00;11.50
439;DHT22;206;48.782;9.252;2022-08-05T15:25:05;32.00;13.40
439;DHT22;206;48.782;9.252;2022-08-05T15:27:31;31.80;17.90
439;DHT22;206;48.782;9.252;2022-08-05T15:29:56;31.60;21.20
439;DHT22;206;48.782;9.252;2022-08-05T15:32:23;31.40;23.40
439;DHT22;206;48.782;9.252;2022-08-05T15:34:48;31.10;22.60
439;DHT22;206;48.782;9.252;2022-08-05T15:37:14;30.90;24.80
439;DHT22;206;48.782;9.252;2022-08-05T15:39:40;30.90;23.70
439;DHT22;206;48.782;9.252;2022-08-05T15:42:06;30.70;26.00
439;DHT22;206;48.782;9.252;2022-08-05T15:44:31;30.70;24.30
439;DHT22;206;48.782;9.252;2022-08-05T15:47:03;30.60;24.90
439;DHT22;206;48.782;9.252;2022-08-05T15:49:28;30.60;23.80
439;DHT22;206;48.782;9.252;2022-08-05T15:51:54;30.60;24.70
439;DHT22;206;48.782;9.252;2022-08-05T15:54:19;30.70;24.50
439;DHT22;206;48.782;9.252;2022-08-05T15:56:45;30.60;23.80
439;DHT22;206;48.782;9.252;2022-08-05T15:59:11;30.60;23.40
439;DHT22;206;48.782;9.252;2022-08-05T16:01:36;30.50;21.70
439;DHT22;206;48.782;9.252;2022-08-05T16:04:02;30.50;22.20
439;DHT22;206;48.782;9.252;2022-08-05T16:06:27;30.50;22.90
439;DHT22;206;48.782;9.252;2022-08-05T16:08:53;30.50;22.20
439;DHT22;206;48.782;9.252;2022-08-05T16:11:19;30.50;21.70
439;DHT22;206;48.782;9.252;2022-08-05T16:13:45;30.40;19.80
439;DHT22;206;48.782;9.252;2022-08-05T16:16:10;30.30;20.70
439;DHT22;206;48.782;9.252;2022-08-05T16:18:36;30.30;19.80
439;DHT22;206;48.782;9.252;2022-08-05T16:21:03;30.20;20.10
439;DHT22;206;48.782;9.252;2022-08-05T16:23:28;30.30;20.20
439;DHT22;206;48.782;9.252;2022-08-05T16:26:08;30.30;20.40
439;DHT22;206;48.782;9.252;2022-08-05T16:28:38;30.40;19.00
439;DHT22;206;48.782;9.252;2022-08-05T16:31:05;30.40;19.20
439;DHT22;206;48.782;9.252;2022-08-05T16:33:31;30.20;19.10
439;DHT22;206;48.782;9.252;2022-08-05T16:35:58;30.30;19.70
439;DHT22;206;48.782;9.252;2022-08-05T16:38:24;30.30;19.20
439;DHT22;206;48.782;9.252;2022-08-05T16:40:51;30.40;18.70
439;DHT22;206;48.782;9.252;2022-08-05T16:43:16;30.40;18.50
439;DHT22;206;48.782;9.252;2022-08-05T16:45:42;30.40;18.40
439;DHT22;206;48.782;9.252;2022-08-05T16:48:08;30.40;18.20
439;DHT22;206;48.782;9.252;2022-08-05T16:50:33;30.40;18.30
439;DHT22;206;48.782;9.252;2022-08-05T16:52:59;30.40;18.50
439;DHT22;206;48.782;9.252;2022-08-05T16:55:25;30.40;18.00
439;DHT22;206;48.782;9.252;2022-08-05T16:57:50;30.30;18.10
439;DHT22;206;48.782;9.252;2022-08-05T17:00:16;30.30;18.10
439;DHT22;206;48.782;9.252;2022-08-05T17:02:42;30.20;18.50
439;DHT22;206;48.782;9.252;2022-08-05T17:05:08;30.10;18.60
439;DHT22;206;48.782;9.252;2022-08-05T17:07:33;30.10;18.60
439;DHT22;206;48.782;9.252;2022-08-05T17:09:59;30.00;18.70
439;DHT22;206;48.782;9.252;2022-08-05T17:12:25;29.90;19.20
439;DHT22;206;48.782;9.252;2022-08-05T17:14:50;29.90;19.50
439;DHT22;206;48.782;9.252;2022-08-05T17:17:16;29.70;18.20
439;DHT22;206;48.782;9.252;2022-08-05T17:19:42;29.50;18.60